sensor_id;sensor_type;location;lat;lon;timestamp;pressure;altitude;pressure_sealevel;temperature;humidity
60583;BME280;46415;47.536;19.066;2024-02-14T00:01:49;-18346.78;;;4.31;100.00
60583;BME280;46415;47.536;19.066;2024-02-14T00:04:53;-18344.47;;;4.22;100.00
60583;BME280;46415;47.536;19.066;2024-02-14T00:07:56;-18343.06;;;4.17;100.00
60583;BME280;46415;47.536;19.066;2024-02-14T00:10:59;-18342.25;;;4.14;100.00
60583;BME280;46415;47.536;19.066;2024-02-14T00:14:03;-18341.69;;;4.12;100.00
60583;BME280;46415;47.536;19.066;2024-02-14T00:17:06;-18340.06;;;4.06;100.00
60583;BME280;46415;47.536;19.066;2024-02-14T00:20:10;-18341.84;;;4.12;100.00
60583;BME280;46415;47.536;19.066;2024-02-14T00:23:15;-18343.06;;;4.17;100.00
60583;BME280;46415;47.536;19.066;2024-02-14T00:26:19;-18340.88;;;4.09;100.00
60583;BME280;46415;47.536;19.066;2024-02-14T00:29:22;-18338.41;;;4.00;100.00
60583;BME280;46415;47.536;19.066;2024-02-14T00:32:26;-18337.44;;;3.96;100.00
60583;BME280;46415;47.536;19.066;2024-02-14T00:35:29;-18338.41;;;4.00;100.00
60583;BME280;46415;47.536;19.066;2024-02-14T00:38:32;-18340.19;;;4.06;100.00
60583;BME280;46415;47.536;19.066;2024-02-14T00:41:35;-18342.41;;;4.15;100.00
60583;BME280;46415;47.536;19.066;2024-02-14T00:44:38;-18339.50;;;4.04;100.00
60583;BME280;46415;47.536;19.066;2024-02-14T00:47:41;-18336.47;;;3.93;100.00
60583;BME280;46415;47.536;19.066;2024-02-14T00:50:44;-18334.56;;;3.86;100.00
60583;BME280;46415;47.536;19.066;2024-02-14T00:53:47;-18336.47;;;3.93;100.00
60583;BME280;46415;47.536;19.066;2024-02-14T00:56:50;-18334.41;;;3.85;100.00
60583;BME280;46415;47.536;19.066;2024-02-14T00:59:53;-18332.47;;;3.78;100.00
60583;BME280;46415;47.536;19.066;2024-02-14T01:02:56;-18332.47;;;3.78;100.00
60583;BME280;46415;47.536;19.066;2024-02-14T01:06:00;-18331.78;;;3.76;100.00
60583;BME280;46415;47.536;19.066;2024-02-14T01:09:03;-18330.28;;;3.70;100.00
60583;BME280;46415;47.536;19.066;2024-02-14T01:12:06;-18332.06;;;3.77;100.00
60583;BME280;46415;47.536;19.066;2024-02-14T01:15:09;-18337.03;;;3.95;100.00
60583;BME280;46415;47.536;19.066;2024-02-14T01:18:12;-18339.50;;;4.04;100.00
60583;BME280;46415;47.536;19.066;2024-02-14T01:21:16;-18338.69;;;4.01;100.00
60583;BME280;46415;47.536;19.066;2024-02-14T01:24:19;-18338.13;;;3.99;100.00
60583;BME280;46415;47.536;19.066;2024-02-14T01:27:22;-18336.47;;;3.93;100.00
60583;BME280;46415;47.536;19.066;2024-02-14T01:30:25;-18334.13;;;3.84;100.00
60583;BME280;46415;47.536;19.066;2024-02-14T01:33:28;-18332.06;;;3.77;100.00
60583;BME280;46415;47.536;19.066;2024-02-14T01:36:33;-18330.41;;;3.70;100.00
60583;BME280;46415;47.536;19.066;2024-02-14T01:39:36;-18328.91;;;3.65;100.00
60583;BME280;46415;47.536;19.066;2024-02-14T01:42:39;-18325.75;;;3.53;100.00
60583;BME280;46415;47.536;19.066;2024-02-14T01:45:41;-18324.63;;;3.49;100.00
60583;BME280;46415;47.536;19.066;2024-02-14T01:48:44;-18323.53;;;3.45;100.00
60583;BME280;46415;47.536;19.066;2024-02-14T01:51:48;-18323.25;;;3.44;100.00
60583;BME280;46415;47.536;19.066;2024-02-14T01:54:51;-18322.16;;;3.40;100.00
60583;BME280;46415;47.536;19.066;2024-02-14T01:57:55;-18321.47;;;3.38;100.00
60583;BME280;46415;47.536;19.066;2024-02-14T02:00:58;-18320.78;;;3.35;100.00
60583;BME280;46415;47.536;19.066;2024-02-14T02:04:02;-18318.59;;;3.27;100.00
60583;BME280;46415;47.536;19.066;2024-02-14T02:07:06;-18317.06;;;3.21;100.00
60583;BME280;46415;47.536;19.066;2024-02-14T02:10:10;-18319.28;;;3.29;100.00
60583;BME280;46415;47.536;19.066;2024-02-14T02:13:14;-18319.41;;;3.30;100.00
60583;BME280;46415;47.536;19.066;2024-02-14T02:16:18;-18317.06;;;3.21;100.00
60583;BME280;46415;47.536;19.066;2024-02-14T02:19:21;-18314.19;;;3.11;100.00
60583;BME280;46415;47.536;19.066;2024-02-14T02:22:24;-18311.69;;;3.02;100.00
60583;BME280;46415;47.536;19.066;2024-02-14T02:25:27;-18310.47;;;2.97;100.00
60583;BME280;46415;47.536;19.066;2024-02-14T02:28:30;-18310.88;;;2.99;100.00
60583;BME280;46415;47.536;19.066;2024-02-14T02:31:33;-18313.22;;;3.07;100.00
60583;BME280;46415;47.536;19.066;2024-02-14T02:34:36;-18312.13;;;3.03;100.00
60583;BME280;46415;47.536;19.066;2024-02-14T02:37:41;-18314.19;;;3.11;100.00
60583;BME280;46415;47.536;19.066;2024-02-14T02:40:46;-18316.94;;;3.21;100.00
60583;BME280;46415;47.536;19.066;2024-02-14T02:43:49;-18317.06;;;3.21;100.00
60583;BME280;46415;47.536;19.066;2024-02-14T02:46:53;-18315.00;;;3.14;100.00
60583;BME280;46415;47.536;19.066;2024-02-14T02:49:55;-18312.81;;;3.06;100.00
60583;BME280;46415;47.536;19.066;2024-02-14T02:53:00;-18309.50;;;2.94;100.00
60583;BME280;46415;47.536;19.066;2024-02-14T02:56:03;-18308.66;;;2.91;100.00
60583;BME280;46415;47.536;19.066;2024-02-14T02:59:06;-18307.16;;;2.85;100.00
60583;BME280;46415;47.536;19.066;2024-02-14T03:02:09;-18304.81;;;2.76;100.00
60583;BME280;46415;47.536;19.066;2024-02-14T03:05:14;-18304.25;;;2.74;100.00
60583;BME280;46415;47.536;19.066;2024-02-14T03:08:21;-18302.19;;;2.67;100.00
60583;BME280;46415;47.536;19.066;2024-02-14T03:11:28;-18301.37;;;2.64;100.00
60583;BME280;46415;47.536;19.066;2024-02-14T03:14:31;-18300.00;;;2.59;100.00
60583;BME280;46415;47.536;19.066;2024-02-14T03:17:36;-18299.16;;;2.56;100.00
60583;BME280;46415;47.536;19.066;2024-02-14T03:20:39;-18304.81;;;2.76;100.00
60583;BME280;46415;47.536;19.066;2024-02-14T03:23:42;-18308.13;;;2.88;100.00
60583;BME280;46415;47.536;19.066;2024-02-14T03:26:48;-18311.16;;;3.00;100.00
60583;BME280;46415;47.536;19.066;2024-02-14T03:29:54;-18309.91;;;2.95;100.00
60583;BME280;46415;47.536;19.066;2024-02-14T03:32:57;-18310.19;;;2.96;100.00
60583;BME280;46415;47.536;19.066;2024-02-14T03:36:01;-18309.78;;;2.95;100.00
60583;BME280;46415;47.536;19.066;2024-02-14T03:39:04;-18307.84;;;2.87;100.00
60583;BME280;46415;47.536;19.066;2024-02-14T03:42:08;-18308.81;;;2.91;100.00
60583;BME280;46415;47.536;19.066;2024-02-14T03:45:10;-18307.56;;;2.86;100.00
60583;BME280;46415;47.536;19.066;2024-02-14T03:48:13;-18305.91;;;2.80;100.00
60583;BME280;46415;47.536;19.066;2024-02-14T03:51:16;-18303.84;;;2.73;100.00
60583;BME280;46415;47.536;19.066;2024-02-14T03:54:20;-18303.44;;;2.71;100.00
60583;BME280;46415;47.536;19.066;2024-02-14T03:57:23;-18304.00;;;2.73;100.00
60583;BME280;46415;47.536;19.066;2024-02-14T04:00:27;-18304.13;;;2.74;100.00
60583;BME280;46415;47.536;19.066;2024-02-14T04:03:32;-18301.22;;;2.63;100.00
60583;BME280;46415;47.536;19.066;2024-02-14T04:06:35;-18302.19;;;2.67;100.00
60583;BME280;46415;47.536;19.066;2024-02-14T04:09:38;-18301.50;;;2.64;100.00
60583;BME280;46415;47.536;19.066;2024-02-14T04:12:40;-18299.72;;;2.58;100.00
60583;BME280;46415;47.536;19.066;2024-02-14T04:15:43;-18298.75;;;2.54;100.00
60583;BME280;46415;47.536;19.066;2024-02-14T04:18:46;-18296.56;;;2.46;100.00
60583;BME280;46415;47.536;19.066;2024-02-14T04:21:49;-18292.97;;;2.33;100.00
60583;BME280;46415;47.536;19.066;2024-02-14T04:24:52;-18290.22;;;2.23;100.00
60583;BME280;46415;47.536;19.066;2024-02-14T04:27:55;-18286.78;;;2.10;100.00
60583;BME280;46415;47.536;19.066;2024-02-14T04:30:58;-18284.69;;;2.02;100.00
60583;BME280;46415;47.536;19.066;2024-02-14T04:34:01;-18282.22;;;1.93;100.00
60583;BME280;46415;47.536;19.066;2024-02-14T04:37:04;-18281.41;;;1.90;100.00
60583;BME280;46415;47.536;19.066;2024-02-14T04:40:12;-18280.00;;;1.85;100.00
60583;BME280;46415;47.536;19.066;2024-02-14T04:43:15;-18278.50;;;1.80;100.00
60583;BME280;46415;47.536;19.066;2024-02-14T04:46:19;-18276.72;;;1.73;100.00
60583;BME280;46415;47.536;19.066;2024-02-14T04:49:22;-18276.44;;;1.72;100.00
60583;BME280;46415;47.536;19.066;2024-02-14T04:52:25;-18275.59;;;1.69;100.00
60583;BME280;46415;47.536;19.066;2024-02-14T04:55:27;-18275.06;;;1.67;100.00
60583;BME280;46415;47.536;19.066;2024-02-14T04:58:32;-18275.06;;;1.67;100.00
60583;BME280;46415;47.536;19.066;2024-02-14T05:01:34;-18275.88;;;1.70;100.00
60583;BME280;46415;47.536;19.066;2024-02-14T05:04:37;-18274.09;;;1.63;100.00
60583;BME280;46415;47.536;19.066;2024-02-14T05:07:42;-18272.03;;;1.56;100.00
60583;BME280;46415;47.536;19.066;2024-02-14T05:10:46;-18270.91;;;1.52;100.00
60583;BME280;46415;47.536;19.066;2024-02-14T05:13:48;-18269.69;;;1.47;100.00
60583;BME280;46415;47.536;19.066;2024-02-14T05:16:51;-18271.47;;;1.54;100.00
60583;BME280;46415;47.536;19.066;2024-02-14T05:19:54;-18270.09;;;1.49;100.00
60583;BME280;46415;47.536;19.066;2024-02-14T05:22:57;-18268.72;;;1.44;100.00
60583;BME280;46415;47.536;19.066;2024-02-14T05:26:00;-18267.63;;;1.40;100.00
60583;BME280;46415;47.536;19.066;2024-02-14T05:29:04;-18267.06;;;1.38;100.00
60583;BME280;46415;47.536;19.066;2024-02-14T05:32:08;-18267.34;;;1.39;100.00
60583;BME280;46415;47.536;19.066;2024-02-14T05:35:12;-18265.81;;;1.33;100.00
60583;BME280;46415;47.536;19.066;2024-02-14T05:38:15;-18265.13;;;1.31;100.00
60583;BME280;46415;47.536;19.066;2024-02-14T05:41:18;-18265.13;;;1.31;100.00
60583;BME280;46415;47.536;19.066;2024-02-14T05:44:21;-18263.47;;;1.25;100.00
60583;BME280;46415;47.536;19.066;2024-02-14T05:47:25;-18261.00;;;1.15;100.00
60583;BME280;46415;47.536;19.066;2024-02-14T05:50:28;-18259.19;;;1.09;100.00
60583;BME280;46415;47.536;19.066;2024-02-14T05:53:31;-18259.62;;;1.10;100.00
60583;BME280;46415;47.536;19.066;2024-02-14T05:56:34;-18260.16;;;1.12;100.00
60583;BME280;46415;47.536;19.066;2024-02-14T05:59:37;-18259.62;;;1.10;100.00
60583;BME280;46415;47.536;19.066;2024-02-14T06:02:40;-18260.44;;;1.13;100.00
60583;BME280;46415;47.536;19.066;2024-02-14T06:05:43;-18259.19;;;1.09;100.00
60583;BME280;46415;47.536;19.066;2024-02-14T06:08:46;-18260.72;;;1.14;100.00
60583;BME280;46415;47.536;19.066;2024-02-14T06:11:50;-18263.19;;;1.23;100.00
60583;BME280;46415;47.536;19.066;2024-02-14T06:14:53;-18264.84;;;1.30;100.00
60583;BME280;46415;47.536;19.066;2024-02-14T06:17:56;-18265.53;;;1.32;100.00
60583;BME280;46415;47.536;19.066;2024-02-14T06:20:58;-18267.47;;;1.39;100.00
60583;BME280;46415;47.536;19.066;2024-02-14T06:24:02;-18268.44;;;1.43;100.00
60583;BME280;46415;47.536;19.066;2024-02-14T06:27:06;-18270.09;;;1.49;100.00
60583;BME280;46415;47.536;19.066;2024-02-14T06:30:11;-18271.06;;;1.52;100.00
60583;BME280;46415;47.536;19.066;2024-02-14T06:33:15;-18273.94;;;1.63;100.00
60583;BME280;46415;47.536;19.066;2024-02-14T06:36:18;-18277.13;;;1.75;100.00
60583;BME280;46415;47.536;19.066;2024-02-14T06:39:21;-18279.59;;;1.84;100.00
60583;BME280;46415;47.536;19.066;2024-02-14T06:42:24;-18280.84;;;1.88;100.00
60583;BME280;46415;47.536;19.066;2024-02-14T06:45:27;-18283.19;;;1.97;100.00
60583;BME280;46415;47.536;19.066;2024-02-14T06:48:31;-18285.25;;;2.04;100.00
60583;BME280;46415;47.536;19.066;2024-02-14T06:51:34;-18288.56;;;2.17;100.00
60583;BME280;46415;47.536;19.066;2024-02-14T06:54:37;-18290.34;;;2.23;100.00
60583;BME280;46415;47.536;19.066;2024-02-14T06:57:40;-18293.53;;;2.35;100.00
60583;BME280;46415;47.536;19.066;2024-02-14T07:00:42;-18296.97;;;2.47;100.00
60583;BME280;46415;47.536;19.066;2024-02-14T07:03:47;-18299.03;;;2.55;100.00
60583;BME280;46415;47.536;19.066;2024-02-14T07:06:50;-18302.19;;;2.67;100.00
60583;BME280;46415;47.536;19.066;2024-02-14T07:09:54;-18305.37;;;2.78;100.00
60583;BME280;46415;47.536;19.066;2024-02-14T07:12:57;-18308.53;;;2.90;100.00
60583;BME280;46415;47.536;19.066;2024-02-14T07:16:00;-18311.41;;;3.01;100.00
60583;BME280;46415;47.536;19.066;2024-02-14T07:19:03;-18315.00;;;3.14;100.00
60583;BME280;46415;47.536;19.066;2024-02-14T07:22:06;-18317.91;;;3.24;100.00
60583;BME280;46415;47.536;19.066;2024-02-14T07:25:09;-18321.88;;;3.39;100.00
60583;BME280;46415;47.536;19.066;2024-02-14T07:28:13;-18326.56;;;3.56;100.00
60583;BME280;46415;47.536;19.066;2024-02-14T07:31:16;-18330.00;;;3.69;100.00
60583;BME280;46415;47.536;19.066;2024-02-14T07:34:18;-18334.56;;;3.86;100.00
60583;BME280;46415;47.536;19.066;2024-02-14T07:37:21;-18340.06;;;4.06;100.00
60583;BME280;46415;47.536;19.066;2024-02-14T07:40:24;-18344.88;;;4.24;100.00
60583;BME280;46415;47.536;19.066;2024-02-14T07:43:28;-18348.16;;;4.36;100.00
60583;BME280;46415;47.536;19.066;2024-02-14T07:46:30;-18352.03;;;4.50;100.00
60583;BME280;46415;47.536;19.066;2024-02-14T07:49:34;-18356.56;;;4.67;100.00
60583;BME280;46415;47.536;19.066;2024-02-14T07:52:37;-18359.59;;;4.78;100.00
60583;BME280;46415;47.536;19.066;2024-02-14T07:55:43;-18363.16;;;4.91;100.00
60583;BME280;46415;47.536;19.066;2024-02-14T07:58:46;-18366.47;;;5.03;100.00
60583;BME280;46415;47.536;19.066;2024-02-14T08:01:49;-18369.75;;;5.15;100.00
60583;BME280;46415;47.536;19.066;2024-02-14T08:04:52;-18370.84;;;5.19;100.00
60583;BME280;46415;47.536;19.066;2024-02-14T08:07:54;-18374.44;;;5.32;100.00
60583;BME280;46415;47.536;19.066;2024-02-14T08:10:57;-18378.00;;;5.46;100.00
60583;BME280;46415;47.536;19.066;2024-02-14T08:14:00;-18384.06;;;5.68;100.00
60583;BME280;46415;47.536;19.066;2024-02-14T08:17:03;-18389.56;;;5.88;100.00
60583;BME280;46415;47.536;19.066;2024-02-14T08:20:06;-18393.00;;;6.01;100.00
60583;BME280;46415;47.536;19.066;2024-02-14T08:23:09;-18394.91;;;6.08;100.00
60583;BME280;46415;47.536;19.066;2024-02-14T08:26:11;-18399.59;;;6.25;100.00
60583;BME280;46415;47.536;19.066;2024-02-14T08:29:14;-18400.56;;;6.29;100.00
60583;BME280;46415;47.536;19.066;2024-02-14T08:32:17;-18405.78;;;6.48;100.00
60583;BME280;46415;47.536;19.066;2024-02-14T08:35:20;-18410.84;;;6.67;100.00
60583;BME280;46415;47.536;19.066;2024-02-14T08:38:23;-18418.28;;;6.94;100.00
60583;BME280;46415;47.536;19.066;2024-02-14T08:41:27;-18419.91;;;7.00;100.00
60583;BME280;46415;47.536;19.066;2024-02-14T08:44:29;-18422.66;;;7.10;100.00
60583;BME280;46415;47.536;19.066;2024-02-14T08:47:32;-18422.78;;;7.11;99.51
60583;BME280;46415;47.536;19.066;2024-02-14T08:50:35;-18425.00;;;7.19;98.55
60583;BME280;46415;47.536;19.066;2024-02-14T08:53:38;-18426.09;;;7.23;96.90
60583;BME280;46415;47.536;19.066;2024-02-14T08:56:41;-18429.25;;;7.34;93.74
60583;BME280;46415;47.536;19.066;2024-02-14T08:59:44;-18429.94;;;7.37;93.91
60583;BME280;46415;47.536;19.066;2024-02-14T09:02:49;-18432.81;;;7.48;92.13
60583;BME280;46415;47.536;19.066;2024-02-14T09:05:52;-18437.91;;;7.66;89.33
60583;BME280;46415;47.536;19.066;2024-02-14T09:08:56;-18442.84;;;7.85;90.34
60583;BME280;46415;47.536;19.066;2024-02-14T09:11:59;-18444.34;;;7.90;88.43
60583;BME280;46415;47.536;19.066;2024-02-14T09:15:06;-18445.31;;;7.94;87.53
60583;BME280;46415;47.536;19.066;2024-02-14T09:18:09;-18446.00;;;7.96;86.04
60583;BME280;46415;47.536;19.066;2024-02-14T09:21:12;-18452.44;;;8.20;84.60
60583;BME280;46415;47.536;19.066;2024-02-14T09:24:19;-18455.47;;;8.31;78.09
60583;BME280;46415;47.536;19.066;2024-02-14T09:27:22;-18460.69;;;8.50;77.20
60583;BME280;46415;47.536;19.066;2024-02-14T09:30:25;-18463.56;;;8.61;78.62
60583;BME280;46415;47.536;19.066;2024-02-14T09:33:39;-18466.44;;;8.72;77.72
60583;BME280;46415;47.536;19.066;2024-02-14T09:36:44;-18467.25;;;8.75;74.71
60583;BME280;46415;47.536;19.066;2024-02-14T09:39:47;-18471.22;;;8.89;72.31
60583;BME280;46415;47.536;19.066;2024-02-14T09:42:53;-18467.25;;;8.75;72.47
60583;BME280;46415;47.536;19.066;2024-02-14T09:45:56;-18470.56;;;8.87;71.60
60583;BME280;46415;47.536;19.066;2024-02-14T09:48:59;-18471.66;;;8.91;69.84
60583;BME280;46415;47.536;19.066;2024-02-14T09:52:03;-18472.87;;;8.95;70.92
60583;BME280;46415;47.536;19.066;2024-02-14T09:55:06;-18479.59;;;9.20;72.17
60583;BME280;46415;47.536;19.066;2024-02-14T09:58:12;-18481.09;;;9.26;69.91
60583;BME280;46415;47.536;19.066;2024-02-14T10:01:16;-18481.09;;;9.26;69.70
60583;BME280;46415;47.536;19.066;2024-02-14T10:04:19;-18482.75;;;9.32;65.47
60583;BME280;46415;47.536;19.066;2024-02-14T10:07:26;-18479.31;;;9.19;64.48
60583;BME280;46415;47.536;19.066;2024-02-14T10:10:28;-18480.41;;;9.23;61.73
60583;BME280;46415;47.536;19.066;2024-02-14T10:13:31;-18478.91;;;9.18;61.17
60583;BME280;46415;47.536;19.066;2024-02-14T10:16:35;-18478.78;;;9.17;61.04
60583;BME280;46415;47.536;19.066;2024-02-14T10:19:38;-18472.47;;;8.94;63.50
60583;BME280;46415;47.536;19.066;2024-02-14T10:22:41;-18477.94;;;9.14;63.25
60583;BME280;46415;47.536;19.066;2024-02-14T10:25:43;-18483.03;;;9.33;63.05
60583;BME280;46415;47.536;19.066;2024-02-14T10:28:47;-18477.41;;;9.12;61.56
60583;BME280;46415;47.536;19.066;2024-02-14T10:31:54;-18476.16;;;9.08;62.03
60583;BME280;46415;47.536;19.066;2024-02-14T10:34:58;-18480.97;;;9.25;62.82
60583;BME280;46415;47.536;19.066;2024-02-14T10:38:02;-18487.69;;;9.50;62.50
60583;BME280;46415;47.536;19.066;2024-02-14T10:41:05;-18489.47;;;9.57;61.80
60583;BME280;46415;47.536;19.066;2024-02-14T10:44:11;-18491.25;;;9.63;61.75
60583;BME280;46415;47.536;19.066;2024-02-14T10:47:19;-18492.75;;;9.69;62.51
60583;BME280;46415;47.536;19.066;2024-02-14T10:50:22;-18482.75;;;9.32;62.27
60583;BME280;46415;47.536;19.066;2024-02-14T10:53:29;-18481.25;;;9.26;64.39
60583;BME280;46415;47.536;19.066;2024-02-14T10:56:41;-18482.88;;;9.32;64.65
60583;BME280;46415;47.536;19.066;2024-02-14T10:59:46;-18488.50;;;9.53;63.60
60583;BME280;46415;47.536;19.066;2024-02-14T11:02:51;-18488.50;;;9.53;63.77
60583;BME280;46415;47.536;19.066;2024-02-14T11:05:55;-18495.06;;;9.77;63.77
60583;BME280;46415;47.536;19.066;2024-02-14T11:09:03;-18484.81;;;9.39;64.30
60583;BME280;46415;47.536;19.066;2024-02-14T11:12:13;-18488.22;;;9.52;64.73
60583;BME280;46415;47.536;19.066;2024-02-14T11:15:22;-18494.94;;;9.77;65.71
60583;BME280;46415;47.536;19.066;2024-02-14T11:18:29;-18492.63;;;9.68;65.29
60583;BME280;46415;47.536;19.066;2024-02-14T11:21:45;-18499.88;;;9.95;65.37
60583;BME280;46415;47.536;19.066;2024-02-14T11:24:49;-18500.00;;;9.96;63.20
60583;BME280;46415;47.536;19.066;2024-02-14T11:27:52;-18498.78;;;9.91;63.77
60583;BME280;46415;47.536;19.066;2024-02-14T11:31:00;-18500.84;;;9.99;62.39
60583;BME280;46415;47.536;19.066;2024-02-14T11:34:04;-18502.34;;;10.04;61.92
60583;BME280;46415;47.536;19.066;2024-02-14T11:37:07;-18505.78;;;10.17;61.59
60583;BME280;46415;47.536;19.066;2024-02-14T11:40:10;-18503.31;;;10.08;60.80
60583;BME280;46415;47.536;19.066;2024-02-14T11:43:19;-18507.81;;;10.25;60.63
60583;BME280;46415;47.536;19.066;2024-02-14T11:46:25;-18505.06;;;10.14;58.78
60583;BME280;46415;47.536;19.066;2024-02-14T11:49:32;-18502.34;;;10.04;59.25
60583;BME280;46415;47.536;19.066;2024-02-14T11:52:35;-18506.19;;;10.18;59.21
60583;BME280;46415;47.536;19.066;2024-02-14T11:55:38;-18515.09;;;10.51;60.76
60583;BME280;46415;47.536;19.066;2024-02-14T11:58:41;-18521.25;;;10.74;56.23
60583;BME280;46415;47.536;19.066;2024-02-14T12:01:45;-18522.06;;;10.77;55.77
60583;BME280;46415;47.536;19.066;2024-02-14T12:04:49;-18526.44;;;10.93;54.94
60583;BME280;46415;47.536;19.066;2024-02-14T12:07:57;-18535.47;;;11.27;54.68
60583;BME280;46415;47.536;19.066;2024-02-14T12:11:00;-18547.09;;;11.70;55.42
60583;BME280;46415;47.536;19.066;2024-02-14T12:14:05;-18551.63;;;11.86;52.32
60583;BME280;46415;47.536;19.066;2024-02-14T12:17:09;-18549.31;;;11.78;52.34
60583;BME280;46415;47.536;19.066;2024-02-14T12:20:16;-18549.97;;;11.80;51.47
60583;BME280;46415;47.536;19.066;2024-02-14T12:23:19;-18551.91;;;11.88;51.64
60583;BME280;46415;47.536;19.066;2024-02-14T12:26:24;-18550.12;;;11.81;51.04
60583;BME280;46415;47.536;19.066;2024-02-14T12:29:27;-18547.25;;;11.70;50.98
60583;BME280;46415;47.536;19.066;2024-02-14T12:32:29;-18532.31;;;11.15;52.10
60583;BME280;46415;47.536;19.066;2024-02-14T12:35:34;-18535.47;;;11.27;53.03
60583;BME280;46415;47.536;19.066;2024-02-14T12:38:38;-18543.97;;;11.58;51.98
60583;BME280;46415;47.536;19.066;2024-02-14T12:41:41;-18542.03;;;11.51;51.67
60583;BME280;46415;47.536;19.066;2024-02-14T12:44:43;-18538.63;;;11.38;52.32
60583;BME280;46415;47.536;19.066;2024-02-14T12:47:46;-18538.63;;;11.38;52.13
60583;BME280;46415;47.536;19.066;2024-02-14T12:50:49;-18543.13;;;11.55;52.82
60583;BME280;46415;47.536;19.066;2024-02-14T12:53:54;-18550.25;;;11.81;51.63
60583;BME280;46415;47.536;19.066;2024-02-14T12:56:57;-18552.16;;;11.89;52.24
60583;BME280;46415;47.536;19.066;2024-02-14T13:00:00;-18548.88;;;11.76;52.12
60583;BME280;46415;47.536;19.066;2024-02-14T13:03:03;-18551.75;;;11.87;51.75
60583;BME280;46415;47.536;19.066;2024-02-14T13:06:07;-18553.81;;;11.95;53.30
60583;BME280;46415;47.536;19.066;2024-02-14T13:09:10;-18554.63;;;11.98;52.08
60583;BME280;46415;47.536;19.066;2024-02-14T13:12:16;-18554.38;;;11.97;53.45
60583;BME280;46415;47.536;19.066;2024-02-14T13:15:19;-18549.56;;;11.79;53.64
60583;BME280;46415;47.536;19.066;2024-02-14T13:18:22;-18542.31;;;11.52;54.69
60583;BME280;46415;47.536;19.066;2024-02-14T13:21:25;-18547.78;;;11.72;55.12
60583;BME280;46415;47.536;19.066;2024-02-14T13:24:28;-18544.78;;;11.61;55.46
60583;BME280;46415;47.536;19.066;2024-02-14T13:27:30;-18544.66;;;11.61;54.79
60583;BME280;46415;47.536;19.066;2024-02-14T13:30:34;-18543.97;;;11.58;56.09
60583;BME280;46415;47.536;19.066;2024-02-14T13:33:40;-18540.69;;;11.46;57.50
60583;BME280;46415;47.536;19.066;2024-02-14T13:36:43;-18541.91;;;11.51;57.23
60583;BME280;46415;47.536;19.066;2024-02-14T13:39:46;-18534.09;;;11.22;59.59
60583;BME280;46415;47.536;19.066;2024-02-14T13:42:50;-18535.22;;;11.26;59.68
60583;BME280;46415;47.536;19.066;2024-02-14T13:45:53;-18528.91;;;11.02;61.64
60583;BME280;46415;47.536;19.066;2024-02-14T13:48:56;-18530.00;;;11.07;61.89
60583;BME280;46415;47.536;19.066;2024-02-14T13:52:00;-18528.91;;;11.02;62.70
60583;BME280;46415;47.536;19.066;2024-02-14T13:55:03;-18525.06;;;10.88;62.71
60583;BME280;46415;47.536;19.066;2024-02-14T13:58:08;-18528.63;;;11.01;63.10
60583;BME280;46415;47.536;19.066;2024-02-14T14:01:19;-18528.91;;;11.02;63.48
60583;BME280;46415;47.536;19.066;2024-02-14T14:04:22;-18528.38;;;11.00;63.68
60583;BME280;46415;47.536;19.066;2024-02-14T14:07:25;-18525.22;;;10.89;63.26
60583;BME280;46415;47.536;19.066;2024-02-14T14:10:29;-18527.94;;;10.99;62.53
60583;BME280;46415;47.536;19.066;2024-02-14T14:13:31;-18526.44;;;10.93;62.83
60583;BME280;46415;47.536;19.066;2024-02-14T14:16:36;-18528.09;;;10.99;64.38
60583;BME280;46415;47.536;19.066;2024-02-14T14:19:38;-18527.25;;;10.96;63.75
60583;BME280;46415;47.536;19.066;2024-02-14T14:22:42;-18521.94;;;10.77;64.54
60583;BME280;46415;47.536;19.066;2024-02-14T14:25:44;-18518.50;;;10.64;64.73
60583;BME280;46415;47.536;19.066;2024-02-14T14:28:48;-18517.41;;;10.60;64.36
60583;BME280;46415;47.536;19.066;2024-02-14T14:31:50;-18514.66;;;10.50;64.69
60583;BME280;46415;47.536;19.066;2024-02-14T14:34:53;-18516.72;;;10.57;64.34
60583;BME280;46415;47.536;19.066;2024-02-14T14:37:56;-18516.59;;;10.57;62.96
60583;BME280;46415;47.536;19.066;2024-02-14T14:40:59;-18516.88;;;10.58;63.26
60583;BME280;46415;47.536;19.066;2024-02-14T14:44:01;-18514.41;;;10.49;64.87
60583;BME280;46415;47.536;19.066;2024-02-14T14:47:04;-18515.22;;;10.52;66.22
60583;BME280;46415;47.536;19.066;2024-02-14T14:50:07;-18509.06;;;10.29;65.59
60583;BME280;46415;47.536;19.066;2024-02-14T14:53:10;-18507.81;;;10.25;66.47
60583;BME280;46415;47.536;19.066;2024-02-14T14:56:13;-18509.75;;;10.32;66.90
60583;BME280;46415;47.536;19.066;2024-02-14T14:59:16;-18507.00;;;10.21;66.76
60583;BME280;46415;47.536;19.066;2024-02-14T15:02:24;-18510.44;;;10.34;66.17
60583;BME280;46415;47.536;19.066;2024-02-14T15:05:28;-18512.88;;;10.43;66.18
60583;BME280;46415;47.536;19.066;2024-02-14T15:08:30;-18530.69;;;11.09;64.03
60583;BME280;46415;47.536;19.066;2024-02-14T15:11:35;-18552.31;;;11.89;60.71
60583;BME280;46415;47.536;19.066;2024-02-14T15:14:38;-18570.34;;;12.56;58.41
60583;BME280;46415;47.536;19.066;2024-02-14T15:17:41;-18572.41;;;12.63;56.91
60583;BME280;46415;47.536;19.066;2024-02-14T15:20:44;-18558.19;;;12.11;58.14
60583;BME280;46415;47.536;19.066;2024-02-14T15:23:47;-18540.81;;;11.46;60.63
60583;BME280;46415;47.536;19.066;2024-02-14T15:26:49;-18533.16;;;11.18;62.51
60583;BME280;46415;47.536;19.066;2024-02-14T15:29:53;-18529.31;;;11.04;63.85
60583;BME280;46415;47.536;19.066;2024-02-14T15:33:14;-18519.19;;;10.67;65.30
60583;BME280;46415;47.536;19.066;2024-02-14T15:36:26;-18515.50;;;10.53;66.14
60583;BME280;46415;47.536;19.066;2024-02-14T15:39:29;-18510.97;;;10.36;67.68
60583;BME280;46415;47.536;19.066;2024-02-14T15:42:32;-18508.09;;;10.26;68.77
60583;BME280;46415;47.536;19.066;2024-02-14T15:45:35;-18503.72;;;10.09;71.64
60583;BME280;46415;47.536;19.066;2024-02-14T15:48:37;-18495.75;;;9.80;73.69
60583;BME280;46415;47.536;19.066;2024-02-14T15:51:40;-18493.44;;;9.71;74.43